< < Back
Terminal Aerodrome Forecast


Current Version              Previous Versions:   1  2  3  4  5  6  7  8  9  

Terminal Aerodrome Forecast

913
FTUS42 KTAE 060057 AAA
TAFDHN
TAF AMD
KDHN 060057Z 0601/0624 30006KT P6SM SKC
     FM061500 33014G20KT P6SM SKC=

Latest METAR

646
SAUS70 KWBC 062200 RRB
MTRDHN
METAR KDHN 062153Z 36016G20KT 10SM CLR 24/05 A2993 RMK AO2 SLP133
T02390050


USA.gov is the U.S. government's official web portal to all federal, state and local government web resources and services.